createdAt,value
2022-09-03T00:00:11.624Z,58.30
2022-09-03T00:02:49.150Z,58.30
2022-09-03T00:05:34.360Z,58.40
2022-09-03T00:08:35.533Z,58.60
2022-09-03T00:11:17.496Z,58.50
2022-09-03T00:14:09.182Z,58.60
2022-09-03T00:17:01.499Z,58.70
2022-09-03T00:19:34.768Z,59.00
2022-09-03T00:22:18.986Z,59.00
2022-09-03T00:24:47.740Z,59.00
2022-09-03T00:27:21.411Z,59.10
2022-09-03T00:30:09.620Z,59.20
2022-09-03T00:32:53.062Z,59.20
2022-09-03T00:35:29.700Z,59.40
2022-09-03T00:37:58.436Z,59.40
2022-09-03T00:40:44.406Z,59.50
2022-09-03T00:43:46.157Z,59.40
2022-09-03T00:46:25.790Z,59.60
2022-09-03T00:49:44.053Z,59.80
2022-09-03T00:52:23.417Z,59.80
2022-09-03T00:55:13.017Z,60.00
2022-09-03T00:58:10.809Z,60.20
2022-09-03T01:00:42.681Z,60.30
2022-09-03T01:03:16.033Z,60.50
2022-09-03T01:06:13.156Z,60.60
2022-09-03T01:08:51.524Z,60.70
2022-09-03T01:11:47.225Z,60.70
2022-09-03T01:14:20.731Z,61.10
2022-09-03T01:17:12.466Z,61.10
2022-09-03T01:19:58.189Z,61.10
2022-09-03T01:23:00.885Z,61.30
2022-09-03T01:25:34.052Z,61.70
2022-09-03T01:28:20.417Z,61.70
2022-09-03T01:31:12.554Z,61.50
2022-09-03T01:33:48.726Z,61.60
2022-09-03T01:36:40.588Z,61.70
2022-09-03T01:39:17.739Z,61.70
2022-09-03T01:42:20.497Z,61.90
2022-09-03T01:45:01.803Z,62.00
2022-09-03T01:47:42.227Z,62.10
2022-09-03T01:50:42.775Z,62.10
2022-09-03T01:53:18.747Z,62.40
2022-09-03T01:56:23.651Z,62.50
2022-09-03T01:59:01.048Z,62.60
2022-09-03T02:01:41.597Z,62.60
2022-09-03T02:04:23.380Z,62.60
2022-09-03T02:06:52.467Z,63.20
2022-09-03T02:09:20.543Z,62.60
2022-09-03T02:11:59.601Z,62.80
2022-09-03T02:14:28.353Z,62.80
2022-09-03T02:16:58.217Z,62.80
2022-09-03T02:19:28.469Z,63.00
2022-09-03T02:21:57.396Z,63.00
2022-09-03T02:24:27.838Z,63.20
2022-09-03T02:26:55.803Z,63.30
2022-09-03T02:29:23.848Z,63.30
2022-09-03T02:31:51.591Z,63.30
2022-09-03T02:34:18.875Z,63.20
2022-09-03T02:36:47.351Z,63.30
2022-09-03T02:39:16.519Z,63.50
2022-09-03T02:41:44.788Z,63.70
2022-09-03T02:44:31.745Z,63.70
2022-09-03T02:47:01.733Z,63.80
2022-09-03T02:49:29.759Z,64.00
2022-09-03T02:52:06.510Z,63.90
2022-09-03T02:54:36.383Z,64.00
2022-09-03T02:57:03.860Z,64.00
2022-09-03T02:59:31.070Z,64.20
2022-09-03T03:02:01.220Z,64.20
2022-09-03T03:04:30.445Z,64.20
2022-09-03T03:06:58.352Z,64.20
2022-09-03T03:09:25.910Z,64.20
2022-09-03T03:11:55.292Z,64.50
2022-09-03T03:14:22.843Z,64.50
2022-09-03T03:16:51.489Z,64.60
2022-09-03T03:19:18.875Z,64.50
2022-09-03T03:21:46.211Z,64.80
2022-09-03T03:24:14.952Z,64.80
2022-09-03T03:26:42.304Z,64.80
2022-09-03T03:29:20.480Z,64.90
2022-09-03T03:31:47.734Z,65.10
2022-09-03T03:34:20.977Z,65.10
2022-09-03T03:36:48.292Z,65.10
2022-09-03T03:39:15.924Z,65.30
2022-09-03T03:41:43.315Z,65.20
2022-09-03T03:44:10.598Z,65.10
2022-09-03T03:46:40.257Z,65.00
2022-09-03T03:49:09.133Z,65.20
2022-09-03T03:51:37.238Z,65.00
2022-09-03T03:54:05.794Z,65.20
2022-09-03T03:56:34.730Z,65.30
2022-09-03T03:59:02.470Z,65.50
2022-09-03T04:01:30.102Z,65.50
2022-09-03T04:03:59.969Z,65.60
2022-09-03T04:06:28.748Z,65.80
2022-09-03T04:08:56.256Z,65.60
2022-09-03T04:11:24.518Z,65.70
2022-09-03T04:13:52.699Z,65.90
2022-09-03T04:16:26.442Z,65.90
2022-09-03T04:18:55.127Z,65.90
2022-09-03T04:21:24.543Z,65.80
2022-09-03T04:23:53.542Z,65.80
2022-09-03T04:26:33.207Z,65.70
2022-09-03T04:29:05.150Z,65.70
2022-09-03T04:31:33.564Z,65.90
2022-09-03T04:34:01.455Z,65.90
2022-09-03T04:36:30.856Z,66.30
2022-09-03T04:39:04.513Z,66.10
2022-09-03T04:41:32.196Z,66.20
2022-09-03T04:44:00.422Z,66.10
2022-09-03T04:46:33.430Z,66.80
2022-09-03T04:49:01.963Z,66.20
2022-09-03T04:51:30.250Z,66.20
2022-09-03T04:54:02.367Z,66.20
2022-09-03T04:56:32.320Z,66.40
2022-09-03T04:59:01.991Z,66.50
2022-09-03T05:01:31.718Z,66.40
2022-09-03T05:04:00.608Z,66.60
2022-09-03T05:06:30.019Z,66.60
2022-09-03T05:08:57.938Z,66.70
2022-09-03T05:11:26.561Z,66.70
2022-09-03T05:13:56.296Z,66.60
2022-09-03T05:16:26.413Z,66.80
2022-09-03T05:18:55.728Z,66.80
2022-09-03T05:21:24.466Z,66.80
2022-09-03T05:23:52.954Z,66.80
2022-09-03T05:26:32.211Z,66.80
2022-09-03T05:29:01.563Z,67.00
2022-09-03T05:31:31.624Z,67.00
2022-09-03T05:34:02.565Z,66.90
2022-09-03T05:36:36.396Z,67.10
2022-09-03T05:39:05.457Z,67.10
2022-09-03T05:41:34.245Z,67.10
2022-09-03T05:44:02.076Z,67.20
2022-09-03T05:46:35.222Z,67.10
2022-09-03T05:49:04.954Z,67.20
2022-09-03T05:51:33.324Z,67.20
2022-09-03T05:54:00.792Z,67.30
2022-09-03T05:56:29.842Z,67.30
2022-09-03T05:59:01.071Z,67.40
2022-09-03T06:01:31.261Z,67.20
2022-09-03T06:04:07.200Z,67.30
2022-09-03T06:06:37.944Z,67.30
2022-09-03T06:09:08.291Z,67.30
2022-09-03T06:11:37.955Z,67.20
2022-09-03T06:14:08.965Z,67.20
2022-09-03T06:16:49.399Z,67.30
2022-09-03T06:19:17.125Z,67.30
2022-09-03T06:21:45.673Z,67.30
2022-09-03T06:24:15.699Z,67.30
2022-09-03T06:26:43.924Z,68.00
2022-09-03T06:29:11.824Z,67.20
2022-09-03T06:31:39.824Z,67.30
2022-09-03T06:34:07.306Z,67.10
2022-09-03T06:36:34.835Z,67.10
2022-09-03T06:39:02.128Z,67.10
2022-09-03T06:41:35.198Z,67.00
2022-09-03T06:44:11.242Z,66.90
2022-09-03T06:46:42.253Z,67.10
2022-09-03T06:49:10.905Z,67.00
2022-09-03T06:51:39.024Z,67.20
2022-09-03T06:54:11.344Z,67.10
2022-09-03T06:56:41.255Z,67.10
2022-09-03T06:59:13.975Z,67.10
2022-09-03T07:01:45.341Z,67.10
2022-09-03T07:04:16.898Z,67.00
2022-09-03T07:06:47.984Z,67.20
2022-09-03T07:09:18.024Z,67.10
2022-09-03T07:11:49.156Z,67.10
2022-09-03T07:14:18.793Z,67.20
2022-09-03T07:16:47.165Z,67.10
2022-09-03T07:19:14.606Z,67.30
2022-09-03T07:21:48.409Z,67.20
2022-09-03T07:24:18.153Z,67.20
2022-09-03T07:26:47.065Z,67.00
2022-09-03T07:29:15.855Z,67.00
2022-09-03T07:31:44.199Z,67.10
2022-09-03T07:34:13.027Z,67.00
2022-09-03T07:36:47.003Z,66.90
2022-09-03T07:39:17.924Z,67.10
2022-09-03T07:41:46.473Z,67.30
2022-09-03T07:44:19.244Z,67.20
2022-09-03T07:46:47.800Z,67.20
2022-09-03T07:49:15.486Z,67.30
2022-09-03T07:51:42.732Z,67.30
2022-09-03T07:54:11.713Z,67.40
2022-09-03T07:56:40.406Z,67.30
2022-09-03T07:59:08.861Z,67.30
2022-09-03T08:01:39.160Z,67.20
2022-09-03T08:04:10.861Z,67.20
2022-09-03T08:06:38.923Z,67.10
2022-09-03T08:09:11.400Z,66.90
2022-09-03T08:11:40.939Z,67.00
2022-09-03T08:14:10.819Z,66.90
2022-09-03T08:16:43.674Z,67.50
2022-09-03T08:19:11.998Z,66.90
2022-09-03T08:21:42.021Z,67.00
2022-09-03T08:24:10.932Z,66.80
2022-09-03T08:26:41.634Z,66.60
2022-09-03T08:29:09.333Z,66.80
2022-09-03T08:31:36.947Z,66.90
2022-09-03T08:34:07.251Z,67.10
2022-09-03T08:36:37.240Z,67.80
2022-09-03T08:39:09.713Z,68.40
2022-09-03T08:42:26.630Z,68.90
2022-09-03T08:45:02.851Z,69.20
2022-09-03T08:47:35.201Z,69.50
2022-09-03T08:50:02.434Z,69.70
2022-09-03T08:52:51.900Z,69.70
2022-09-03T08:55:30.841Z,69.70
2022-09-03T08:58:14.082Z,69.90
2022-09-03T09:00:50.302Z,70.00
2022-09-03T09:03:31.121Z,70.30
2022-09-03T09:06:05.240Z,70.40
2022-09-03T09:08:38.305Z,70.30
2022-09-03T09:11:32.819Z,70.30
2022-09-03T09:14:09.898Z,70.60
2022-09-03T09:16:46.089Z,70.50
2022-09-03T09:19:31.579Z,70.70
2022-09-03T09:22:07.704Z,70.80
2022-09-03T09:24:44.673Z,70.80
2022-09-03T09:27:17.421Z,70.90
2022-09-03T09:29:49.741Z,71.20
2022-09-03T09:32:20.219Z,70.90
2022-09-03T09:34:52.394Z,71.20
2022-09-03T09:37:20.594Z,71.50
2022-09-03T09:39:59.957Z,71.70
2022-09-03T09:42:29.920Z,71.90
2022-09-03T09:44:57.226Z,72.50
2022-09-03T09:47:31.626Z,72.90
2022-09-03T09:50:00.395Z,73.40
2022-09-03T09:52:31.506Z,73.70
2022-09-03T09:55:11.090Z,74.20
2022-09-03T09:57:39.730Z,74.40
2022-09-03T10:00:11.947Z,74.50
2022-09-03T10:02:50.978Z,74.70
2022-09-03T10:05:26.002Z,75.10
2022-09-03T10:08:04.768Z,75.50
2022-09-03T10:10:41.279Z,75.50
2022-09-03T10:13:40.383Z,75.90
2022-09-03T10:16:25.118Z,76.10
2022-09-03T10:18:58.866Z,76.40
2022-09-03T10:21:53.376Z,76.30
2022-09-03T10:24:39.636Z,76.10
2022-09-03T10:27:10.977Z,76.30
2022-09-03T10:29:40.982Z,76.00
2022-09-03T10:32:40.440Z,75.70
2022-09-03T10:35:14.312Z,75.60
2022-09-03T10:37:48.586Z,75.20
2022-09-03T10:40:30.836Z,74.80
2022-09-03T10:43:13.159Z,74.60
2022-09-03T10:45:49.071Z,74.60
2022-09-03T10:48:34.856Z,74.70
2022-09-03T10:51:06.708Z,74.60
2022-09-03T10:53:44.645Z,74.40
2022-09-03T10:56:31.214Z,74.20
2022-09-03T10:59:33.036Z,74.10
2022-09-03T11:02:26.616Z,74.20
2022-09-03T11:05:04.991Z,74.30
2022-09-03T11:07:38.541Z,74.30
2022-09-03T11:10:21.722Z,74.60
2022-09-03T11:12:59.543Z,74.80
2022-09-03T11:15:39.051Z,74.80
2022-09-03T11:18:28.167Z,74.80
2022-09-03T11:21:01.379Z,74.90
2022-09-03T11:23:31.583Z,74.90
2022-09-03T11:26:02.461Z,75.20
2022-09-03T11:28:56.105Z,75.40
2022-09-03T11:31:48.822Z,75.30
2022-09-03T11:34:32.097Z,76.00
2022-09-03T11:37:24.112Z,74.90
2022-09-03T11:40:13.638Z,75.30
2022-09-03T11:42:43.441Z,75.60
2022-09-03T11:45:31.925Z,75.60
2022-09-03T11:47:59.731Z,75.10
2022-09-03T11:50:30.298Z,75.00
2022-09-03T11:53:24.426Z,74.50
2022-09-03T11:55:59.702Z,74.60
2022-09-03T11:58:32.871Z,74.30
2022-09-03T12:01:03.911Z,74.50
2022-09-03T12:03:53.095Z,74.60
2022-09-03T12:06:20.777Z,74.30
2022-09-03T12:09:07.807Z,74.10
2022-09-03T12:11:56.814Z,74.10
2022-09-03T12:14:57.190Z,74.30
2022-09-03T12:17:34.315Z,74.60
2022-09-03T12:20:01.706Z,74.60
2022-09-03T12:22:31.258Z,74.60
2022-09-03T12:25:16.752Z,74.50
2022-09-03T12:27:46.379Z,74.70
2022-09-03T12:30:23.469Z,74.60
2022-09-03T12:32:52.284Z,74.70
2022-09-03T12:38:18.489Z,74.80
2022-09-03T12:43:43.293Z,74.50
2022-09-03T12:46:18.015Z,74.20
2022-09-03T12:51:55.811Z,73.40
2022-09-03T12:54:24.494Z,73.40
2022-09-03T12:56:57.687Z,73.30
2022-09-03T12:59:27.751Z,72.90
2022-09-03T13:01:58.747Z,73.00
2022-09-03T13:04:32.561Z,73.10
2022-09-03T13:07:07.600Z,73.10
2022-09-03T13:09:38.221Z,73.00
2022-09-03T13:12:06.001Z,73.00
2022-09-03T13:14:48.235Z,72.60
2022-09-03T13:17:25.971Z,71.90
2022-09-03T13:19:53.322Z,70.30
2022-09-03T13:22:38.677Z,68.60
2022-09-03T13:25:26.262Z,66.90
2022-09-03T13:28:10.848Z,65.10
2022-09-03T13:30:52.511Z,63.90
2022-09-03T13:33:47.556Z,62.50
2022-09-03T13:36:44.851Z,61.40
2022-09-03T13:39:33.283Z,60.00
2022-09-03T13:42:13.330Z,58.30
2022-09-03T13:44:52.622Z,56.70
2022-09-03T13:48:19.256Z,55.40
2022-09-03T13:50:59.985Z,53.80
2022-09-03T13:53:48.607Z,52.60
2022-09-03T13:56:36.299Z,51.50
2022-09-03T13:59:12.346Z,50.50
2022-09-03T14:02:18.585Z,49.40
2022-09-03T14:04:58.086Z,48.50
2022-09-03T14:07:40.395Z,47.70
2022-09-03T14:10:45.794Z,47.10
2022-09-03T14:13:41.977Z,46.60
2022-09-03T14:16:33.404Z,46.10
2022-09-03T14:19:07.423Z,45.50
2022-09-03T14:21:50.663Z,44.90
2022-09-03T14:24:44.115Z,44.70
2022-09-03T14:27:11.633Z,44.60
2022-09-03T14:29:49.904Z,44.60
2022-09-03T14:32:30.112Z,44.60
2022-09-03T14:35:25.102Z,45.40
2022-09-03T14:38:17.208Z,45.70
2022-09-03T14:40:57.502Z,45.50
2022-09-03T14:43:47.442Z,45.20
2022-09-03T14:46:47.830Z,45.20
2022-09-03T14:49:27.438Z,44.60
2022-09-03T14:52:36.956Z,43.60
2022-09-03T14:55:19.752Z,42.90
2022-09-03T14:58:26.092Z,42.00
2022-09-03T15:01:03.601Z,41.20
2022-09-03T15:03:55.038Z,40.80
2022-09-03T15:06:55.420Z,40.70
2022-09-03T15:09:45.101Z,40.90
2022-09-03T15:12:25.301Z,41.20
2022-09-03T15:14:58.484Z,42.20
2022-09-03T15:17:52.041Z,43.30
2022-09-03T15:20:52.109Z,44.80
2022-09-03T15:23:48.650Z,45.90
2022-09-03T15:26:34.309Z,47.20
2022-09-03T15:29:19.981Z,48.60
2022-09-03T15:32:35.469Z,49.50
2022-09-03T15:35:36.687Z,50.10
2022-09-03T15:38:26.725Z,50.50
2022-09-03T15:40:57.168Z,51.10
2022-09-03T15:43:33.832Z,51.80
2022-09-03T15:46:13.666Z,52.30
2022-09-03T15:48:50.637Z,53.00
2022-09-03T15:51:28.198Z,53.60
2022-09-03T15:54:12.705Z,54.10
2022-09-03T15:57:01.598Z,54.60
2022-09-03T15:59:34.608Z,55.30
2022-09-03T16:02:23.883Z,55.90
2022-09-03T16:05:30.692Z,56.40
2022-09-03T16:08:13.018Z,56.90
2022-09-03T16:10:46.647Z,57.50
2022-09-03T16:13:38.563Z,57.80
2022-09-03T16:16:30.511Z,58.40
2022-09-03T16:19:10.040Z,60.50
2022-09-03T16:21:49.126Z,61.50
2022-09-03T16:24:23.115Z,62.40
2022-09-03T16:26:56.955Z,63.20
2022-09-03T16:29:30.862Z,63.80
2022-09-03T16:32:12.494Z,64.60
2022-09-03T16:34:51.641Z,65.60
2022-09-03T16:37:35.205Z,66.20
2022-09-03T16:40:25.954Z,67.00
2022-09-03T16:43:29.825Z,67.50
2022-09-03T16:46:17.934Z,68.30
2022-09-03T16:49:25.154Z,69.00
2022-09-03T16:52:10.998Z,70.00
2022-09-03T16:55:00.192Z,71.00
2022-09-03T16:57:58.228Z,71.60
2022-09-03T17:00:38.245Z,72.70
2022-09-03T17:03:40.393Z,73.70
2022-09-03T17:06:27.861Z,75.00
2022-09-03T17:09:29.044Z,76.10
2022-09-03T17:12:13.876Z,77.10
2022-09-03T17:15:16.707Z,77.80
2022-09-03T17:18:08.242Z,78.10
2022-09-03T17:21:04.362Z,78.50
2022-09-03T17:24:13.146Z,78.90
2022-09-03T17:26:57.244Z,79.30
2022-09-03T17:29:44.853Z,79.40
2022-09-03T17:32:40.120Z,79.60
2022-09-03T17:35:38.481Z,80.00
2022-09-03T17:38:41.076Z,80.60
2022-09-03T17:41:27.038Z,81.10
2022-09-03T17:43:58.519Z,82.00
2022-09-03T17:46:45.547Z,82.90
2022-09-03T17:49:26.001Z,83.70
2022-09-03T17:52:03.133Z,84.80
2022-09-03T17:54:43.076Z,85.60
2022-09-03T17:57:17.896Z,87.00
2022-09-03T18:00:01.929Z,87.70
2022-09-03T18:03:00.705Z,88.70
2022-09-03T18:05:34.091Z,90.00
2022-09-03T18:08:04.416Z,90.50
2022-09-03T18:10:52.591Z,90.90
2022-09-03T18:13:58.221Z,91.00
2022-09-03T18:16:32.197Z,91.10
2022-09-03T18:19:56.352Z,91.10
2022-09-03T18:22:52.437Z,91.20
2022-09-03T18:25:41.273Z,91.50
2022-09-03T18:28:31.172Z,91.70
2022-09-03T18:31:16.946Z,92.00
2022-09-03T18:34:02.678Z,92.50
2022-09-03T18:36:50.389Z,93.00
2022-09-03T18:39:45.916Z,93.40
2022-09-03T18:43:02.999Z,93.70
2022-09-03T18:49:11.657Z,94.60
2022-09-03T18:52:06.580Z,95.10
2022-09-03T18:55:23.560Z,95.40
2022-09-03T18:58:35.723Z,95.80
2022-09-03T19:01:48.187Z,96.10
2022-09-03T19:04:46.436Z,96.60
2022-09-03T19:07:45.368Z,97.10
2022-09-03T19:10:43.628Z,97.30
2022-09-03T19:13:47.734Z,97.60
2022-09-03T19:16:58.053Z,98.20
2022-09-03T19:19:43.835Z,98.30
2022-09-03T19:22:34.203Z,98.80
2022-09-03T19:25:28.843Z,98.80
2022-09-03T19:28:40.610Z,99.30
2022-09-03T19:31:51.103Z,99.50
2022-09-03T19:35:02.256Z,99.70
2022-09-03T19:38:02.716Z,99.90
2022-09-03T19:41:32.959Z,99.90
2022-09-03T19:44:37.013Z,99.90
2022-09-03T19:47:27.193Z,99.90
2022-09-03T19:50:41.160Z,99.90
2022-09-03T19:53:37.532Z,99.90
2022-09-03T19:56:30.925Z,99.90
2022-09-03T19:59:24.423Z,99.90
2022-09-03T20:02:11.058Z,99.90
2022-09-03T20:05:03.265Z,99.90
2022-09-03T20:07:50.652Z,99.90
2022-09-03T20:10:24.706Z,99.90
2022-09-03T20:13:03.823Z,99.90
2022-09-03T20:15:50.579Z,99.90
2022-09-03T20:18:30.420Z,99.90
2022-09-03T20:21:22.322Z,99.90
2022-09-03T20:24:28.405Z,99.90
2022-09-03T20:26:55.725Z,99.90
2022-09-03T20:29:22.979Z,99.90
2022-09-03T20:31:58.634Z,99.90
2022-09-03T20:34:43.020Z,99.90
2022-09-03T20:37:31.230Z,99.90
2022-09-03T20:40:08.560Z,99.90
2022-09-03T20:43:09.633Z,99.90
2022-09-03T20:46:18.011Z,99.90
2022-09-03T20:49:12.943Z,99.90
2022-09-03T20:51:49.292Z,99.90
2022-09-03T20:54:47.365Z,99.90
2022-09-03T20:57:32.416Z,99.90
2022-09-03T21:00:12.689Z,99.90
2022-09-03T21:02:48.524Z,99.90
2022-09-03T21:05:43.410Z,99.90
2022-09-03T21:08:21.574Z,99.90
2022-09-03T21:11:01.314Z,99.90
2022-09-03T21:13:38.335Z,99.90
2022-09-03T21:16:50.302Z,99.90
2022-09-03T21:19:26.825Z,99.90
2022-09-03T21:22:14.507Z,99.90
2022-09-03T21:24:47.870Z,99.90
2022-09-03T21:27:24.124Z,99.90
2022-09-03T21:30:05.234Z,99.90
2022-09-03T21:32:39.679Z,99.90
2022-09-03T21:35:26.393Z,99.90
2022-09-03T21:38:08.856Z,99.90
2022-09-03T21:40:42.982Z,99.90
2022-09-03T21:43:34.958Z,99.90
2022-09-03T21:46:16.835Z,99.90
2022-09-03T21:48:58.573Z,99.90
2022-09-03T21:51:56.959Z,99.90
2022-09-03T21:54:29.674Z,99.90
2022-09-03T21:57:24.392Z,99.90
2022-09-03T22:00:07.546Z,99.90
2022-09-03T22:02:40.559Z,99.90
2022-09-03T22:05:08.489Z,99.90
2022-09-03T22:08:00.155Z,99.90
2022-09-03T22:11:05.363Z,99.90
2022-09-03T22:13:47.003Z,99.90
2022-09-03T22:16:30.198Z,99.90
2022-09-03T22:18:58.590Z,99.90
2022-09-03T22:21:35.950Z,99.90
2022-09-03T22:24:24.336Z,99.90
2022-09-03T22:27:01.457Z,99.90
2022-09-03T22:29:46.210Z,99.90
2022-09-03T22:32:36.715Z,99.90
2022-09-03T22:35:31.453Z,99.90
2022-09-03T22:38:24.252Z,99.90
2022-09-03T22:41:03.947Z,99.90
2022-09-03T22:43:46.022Z,99.90
2022-09-03T22:46:16.610Z,99.90
2022-09-03T22:48:44.439Z,99.90
2022-09-03T22:51:13.407Z,99.90
2022-09-03T22:53:59.047Z,99.90
2022-09-03T22:56:30.695Z,99.90
2022-09-03T22:59:19.683Z,99.90
2022-09-03T23:02:03.566Z,99.90
2022-09-03T23:05:02.204Z,99.90
2022-09-03T23:07:36.776Z,99.90
2022-09-03T23:10:08.781Z,99.90
2022-09-03T23:12:41.615Z,99.90
2022-09-03T23:15:14.448Z,99.90
2022-09-03T23:18:00.623Z,99.90
2022-09-03T23:20:30.319Z,99.90
2022-09-03T23:23:29.411Z,99.90
2022-09-03T23:26:35.199Z,99.90
2022-09-03T23:29:19.367Z,99.90
2022-09-03T23:31:46.854Z,99.90
2022-09-03T23:34:14.238Z,99.90
2022-09-03T23:37:35.737Z,99.90
2022-09-03T23:40:34.501Z,99.90
2022-09-03T23:43:04.895Z,99.90
2022-09-03T23:46:00.525Z,99.90
2022-09-03T23:48:39.933Z,99.90
2022-09-03T23:51:28.124Z,99.90
2022-09-03T23:54:29.658Z,99.90
2022-09-03T23:57:24.791Z,99.90
